sensor_id;sensor_type;location;lat;lon;timestamp;temperature;humidity
37050;DHT22;22958;51.232;6.826;2023-01-29T00:01:35;-2.40;99.90
37050;DHT22;22958;51.232;6.826;2023-01-29T00:04:01;-2.50;99.90
37050;DHT22;22958;51.232;6.826;2023-01-29T00:06:26;-2.30;99.90
37050;DHT22;22958;51.232;6.826;2023-01-29T00:08:52;-2.40;99.90
37050;DHT22;22958;51.232;6.826;2023-01-29T00:11:17;-2.40;99.90
37050;DHT22;22958;51.232;6.826;2023-01-29T00:13:44;-2.40;99.90
37050;DHT22;22958;51.232;6.826;2023-01-29T00:16:10;-2.40;99.90
37050;DHT22;22958;51.232;6.826;2023-01-29T00:18:39;-2.30;99.90
37050;DHT22;22958;51.232;6.826;2023-01-29T00:21:12;-2.30;99.90
37050;DHT22;22958;51.232;6.826;2023-01-29T00:23:38;-2.30;99.90
37050;DHT22;22958;51.232;6.826;2023-01-29T00:26:04;-2.30;99.90
37050;DHT22;22958;51.232;6.826;2023-01-29T00:28:30;-2.40;99.90
37050;DHT22;22958;51.232;6.826;2023-01-29T00:30:55;-2.40;99.90
37050;DHT22;22958;51.232;6.826;2023-01-29T00:33:21;-2.40;99.90
37050;DHT22;22958;51.232;6.826;2023-01-29T00:35:46;-2.40;99.90
37050;DHT22;22958;51.232;6.826;2023-01-29T00:38:12;-2.50;99.90
37050;DHT22;22958;51.232;6.826;2023-01-29T00:40:38;-2.60;99.90
37050;DHT22;22958;51.232;6.826;2023-01-29T00:43:23;-2.70;99.90
37050;DHT22;22958;51.232;6.826;2023-01-29T00:46:07;-2.70;99.90
37050;DHT22;22958;51.232;6.826;2023-01-29T00:48:33;-2.60;99.90
37050;DHT22;22958;51.232;6.826;2023-01-29T00:51:00;-2.50;99.90
37050;DHT22;22958;51.232;6.826;2023-01-29T00:53:25;-2.50;99.90
37050;DHT22;22958;51.232;6.826;2023-01-29T00:55:51;-2.40;99.90
37050;DHT22;22958;51.232;6.826;2023-01-29T00:58:16;-2.30;99.90
37050;DHT22;22958;51.232;6.826;2023-01-29T01:00:47;-2.30;99.90
37050;DHT22;22958;51.232;6.826;2023-01-29T01:03:14;-2.20;99.90
37050;DHT22;22958;51.232;6.826;2023-01-29T01:05:40;-2.20;99.90
37050;DHT22;22958;51.232;6.826;2023-01-29T01:08:08;-2.30;99.90
37050;DHT22;22958;51.232;6.826;2023-01-29T01:11:02;-2.20;99.90
37050;DHT22;22958;51.232;6.826;2023-01-29T01:13:28;-2.20;99.90
37050;DHT22;22958;51.232;6.826;2023-01-29T01:15:55;-2.10;99.90
37050;DHT22;22958;51.232;6.826;2023-01-29T01:18:21;-2.10;99.90
37050;DHT22;22958;51.232;6.826;2023-01-29T01:20:46;-2.30;99.90
37050;DHT22;22958;51.232;6.826;2023-01-29T01:23:17;-2.40;99.90
37050;DHT22;22958;51.232;6.826;2023-01-29T01:25:42;-2.30;99.90
37050;DHT22;22958;51.232;6.826;2023-01-29T01:28:08;-2.30;99.90
37050;DHT22;22958;51.232;6.826;2023-01-29T01:30:35;-2.20;99.90
37050;DHT22;22958;51.232;6.826;2023-01-29T01:33:00;-2.20;99.90
37050;DHT22;22958;51.232;6.826;2023-01-29T01:35:26;-2.30;99.90
37050;DHT22;22958;51.232;6.826;2023-01-29T01:37:51;-2.40;99.90
37050;DHT22;22958;51.232;6.826;2023-01-29T01:40:19;-2.30;99.90
37050;DHT22;22958;51.232;6.826;2023-01-29T01:42:53;-2.40;99.90
37050;DHT22;22958;51.232;6.826;2023-01-29T01:45:29;-2.40;99.90
37050;DHT22;22958;51.232;6.826;2023-01-29T01:48:06;-2.40;99.90
37050;DHT22;22958;51.232;6.826;2023-01-29T01:50:59;-2.50;99.90
37050;DHT22;22958;51.232;6.826;2023-01-29T01:53:38;-2.60;99.90
37050;DHT22;22958;51.232;6.826;2023-01-29T01:56:13;-2.60;99.90
37050;DHT22;22958;51.232;6.826;2023-01-29T01:58:42;-2.60;99.90
37050;DHT22;22958;51.232;6.826;2023-01-29T02:01:10;-2.60;99.90
37050;DHT22;22958;51.232;6.826;2023-01-29T02:03:42;-2.60;99.90
37050;DHT22;22958;51.232;6.826;2023-01-29T02:06:29;-2.80;99.90
37050;DHT22;22958;51.232;6.826;2023-01-29T02:09:19;-2.90;99.90
37050;DHT22;22958;51.232;6.826;2023-01-29T02:12:01;-2.90;99.90
37050;DHT22;22958;51.232;6.826;2023-01-29T02:14:26;-2.80;99.90
37050;DHT22;22958;51.232;6.826;2023-01-29T02:16:52;-2.70;99.90
37050;DHT22;22958;51.232;6.826;2023-01-29T02:25:49;-2.70;99.90
37050;DHT22;22958;51.232;6.826;2023-01-29T02:28:37;-2.80;99.90
37050;DHT22;22958;51.232;6.826;2023-01-29T02:34:13;-2.80;99.90
37050;DHT22;22958;51.232;6.826;2023-01-29T02:36:41;-2.90;99.90
37050;DHT22;22958;51.232;6.826;2023-01-29T02:41:41;-2.80;99.90
37050;DHT22;22958;51.232;6.826;2023-01-29T02:44:19;-2.60;99.90
37050;DHT22;22958;51.232;6.826;2023-01-29T02:50:25;-2.30;99.90
37050;DHT22;22958;51.232;6.826;2023-01-29T02:53:05;-2.10;99.90
37050;DHT22;22958;51.232;6.826;2023-01-29T02:58:21;-2.00;99.90
37050;DHT22;22958;51.232;6.826;2023-01-29T03:00:52;-2.00;99.90
37050;DHT22;22958;51.232;6.826;2023-01-29T03:03:30;-2.10;99.90
37050;DHT22;22958;51.232;6.826;2023-01-29T03:06:05;-2.20;99.90
37050;DHT22;22958;51.232;6.826;2023-01-29T03:08:42;-2.20;99.90
37050;DHT22;22958;51.232;6.826;2023-01-29T03:11:11;-2.30;99.90
37050;DHT22;22958;51.232;6.826;2023-01-29T03:13:52;-2.20;99.90
37050;DHT22;22958;51.232;6.826;2023-01-29T03:16:49;-2.20;99.90
37050;DHT22;22958;51.232;6.826;2023-01-29T03:19:19;-2.40;99.90
37050;DHT22;22958;51.232;6.826;2023-01-29T03:22:05;-2.50;99.90
37050;DHT22;22958;51.232;6.826;2023-01-29T03:27:36;-2.70;99.90
37050;DHT22;22958;51.232;6.826;2023-01-29T03:30:23;-2.90;99.90
37050;DHT22;22958;51.232;6.826;2023-01-29T03:33:10;-2.90;99.90
37050;DHT22;22958;51.232;6.826;2023-01-29T03:35:42;-2.90;99.90
37050;DHT22;22958;51.232;6.826;2023-01-29T03:38:10;-2.90;99.90
37050;DHT22;22958;51.232;6.826;2023-01-29T03:40:50;-2.90;99.90
37050;DHT22;22958;51.232;6.826;2023-01-29T03:43:28;-3.00;99.90
37050;DHT22;22958;51.232;6.826;2023-01-29T03:46:16;-3.00;99.90
37050;DHT22;22958;51.232;6.826;2023-01-29T03:48:57;-3.00;99.90
37050;DHT22;22958;51.232;6.826;2023-01-29T03:51:35;-2.80;99.90
37050;DHT22;22958;51.232;6.826;2023-01-29T03:54:20;-2.70;99.90
37050;DHT22;22958;51.232;6.826;2023-01-29T03:57:02;-2.60;99.90
37050;DHT22;22958;51.232;6.826;2023-01-29T03:59:40;-2.60;99.90
37050;DHT22;22958;51.232;6.826;2023-01-29T04:02:15;-2.70;99.90
37050;DHT22;22958;51.232;6.826;2023-01-29T04:04:44;-2.70;99.90
37050;DHT22;22958;51.232;6.826;2023-01-29T04:07:16;-2.60;99.90
37050;DHT22;22958;51.232;6.826;2023-01-29T04:12:13;-2.70;99.90
37050;DHT22;22958;51.232;6.826;2023-01-29T04:14:40;-2.80;99.90
37050;DHT22;22958;51.232;6.826;2023-01-29T04:17:12;-2.70;99.90
37050;DHT22;22958;51.232;6.826;2023-01-29T04:19:39;-2.70;99.90
37050;DHT22;22958;51.232;6.826;2023-01-29T04:22:09;-2.70;99.90
37050;DHT22;22958;51.232;6.826;2023-01-29T04:24:38;-2.70;99.90
37050;DHT22;22958;51.232;6.826;2023-01-29T04:27:38;-2.70;99.90
37050;DHT22;22958;51.232;6.826;2023-01-29T04:35:31;-2.80;99.90
37050;DHT22;22958;51.232;6.826;2023-01-29T04:38:05;-2.90;99.90
37050;DHT22;22958;51.232;6.826;2023-01-29T04:46:26;-3.00;99.90
37050;DHT22;22958;51.232;6.826;2023-01-29T04:51:38;-3.00;99.90
37050;DHT22;22958;51.232;6.826;2023-01-29T04:57:00;-3.00;99.90
37050;DHT22;22958;51.232;6.826;2023-01-29T04:59:50;-3.00;99.90
37050;DHT22;22958;51.232;6.826;2023-01-29T05:02:18;-3.10;99.90
37050;DHT22;22958;51.232;6.826;2023-01-29T05:04:46;-3.10;99.90
37050;DHT22;22958;51.232;6.826;2023-01-29T05:07:13;-3.10;99.90
37050;DHT22;22958;51.232;6.826;2023-01-29T05:09:41;-3.10;99.90
37050;DHT22;22958;51.232;6.826;2023-01-29T05:12:10;-3.10;99.90
37050;DHT22;22958;51.232;6.826;2023-01-29T05:14:38;-3.00;99.90
37050;DHT22;22958;51.232;6.826;2023-01-29T05:17:11;-3.00;99.90
37050;DHT22;22958;51.232;6.826;2023-01-29T05:19:38;-3.00;99.90
37050;DHT22;22958;51.232;6.826;2023-01-29T05:22:05;-3.00;99.90
37050;DHT22;22958;51.232;6.826;2023-01-29T05:24:31;-2.90;99.90
37050;DHT22;22958;51.232;6.826;2023-01-29T05:26:57;-2.80;99.90
37050;DHT22;22958;51.232;6.826;2023-01-29T05:29:45;-2.70;99.90
37050;DHT22;22958;51.232;6.826;2023-01-29T05:32:12;-2.80;99.90
37050;DHT22;22958;51.232;6.826;2023-01-29T05:34:38;-2.70;99.90
37050;DHT22;22958;51.232;6.826;2023-01-29T05:37:03;-2.60;99.90
37050;DHT22;22958;51.232;6.826;2023-01-29T05:39:29;-2.60;99.90
37050;DHT22;22958;51.232;6.826;2023-01-29T05:41:54;-2.50;99.90
37050;DHT22;22958;51.232;6.826;2023-01-29T05:44:20;-2.50;99.90
37050;DHT22;22958;51.232;6.826;2023-01-29T05:46:45;-2.50;99.90
37050;DHT22;22958;51.232;6.826;2023-01-29T05:49:11;-2.50;99.90
37050;DHT22;22958;51.232;6.826;2023-01-29T05:51:37;-2.50;99.90
37050;DHT22;22958;51.232;6.826;2023-01-29T05:54:03;-2.50;99.90
37050;DHT22;22958;51.232;6.826;2023-01-29T05:56:28;-2.60;99.90
37050;DHT22;22958;51.232;6.826;2023-01-29T05:58:54;-2.50;99.90
37050;DHT22;22958;51.232;6.826;2023-01-29T06:01:22;-2.40;99.90
37050;DHT22;22958;51.232;6.826;2023-01-29T06:03:48;-2.40;99.90
37050;DHT22;22958;51.232;6.826;2023-01-29T06:06:14;-2.30;99.90
37050;DHT22;22958;51.232;6.826;2023-01-29T06:08:40;-2.30;99.90
37050;DHT22;22958;51.232;6.826;2023-01-29T06:11:07;-2.30;99.90
37050;DHT22;22958;51.232;6.826;2023-01-29T06:13:33;-2.20;99.90
37050;DHT22;22958;51.232;6.826;2023-01-29T06:15:59;-2.20;99.90
37050;DHT22;22958;51.232;6.826;2023-01-29T06:18:24;-2.20;99.90
37050;DHT22;22958;51.232;6.826;2023-01-29T06:20:50;-2.10;99.90
37050;DHT22;22958;51.232;6.826;2023-01-29T06:23:15;-2.10;99.90
37050;DHT22;22958;51.232;6.826;2023-01-29T06:25:41;-2.10;99.90
37050;DHT22;22958;51.232;6.826;2023-01-29T06:28:06;-2.10;99.90
37050;DHT22;22958;51.232;6.826;2023-01-29T06:30:32;-2.00;99.90
37050;DHT22;22958;51.232;6.826;2023-01-29T06:32:58;-1.90;99.90
37050;DHT22;22958;51.232;6.826;2023-01-29T06:35:26;-1.90;99.90
37050;DHT22;22958;51.232;6.826;2023-01-29T06:37:52;-1.90;99.90
37050;DHT22;22958;51.232;6.826;2023-01-29T06:40:18;-1.80;99.90
37050;DHT22;22958;51.232;6.826;2023-01-29T06:42:43;-1.80;99.90
37050;DHT22;22958;51.232;6.826;2023-01-29T06:45:09;-1.80;99.90
37050;DHT22;22958;51.232;6.826;2023-01-29T06:47:35;-1.90;99.90
37050;DHT22;22958;51.232;6.826;2023-01-29T06:50:00;-1.90;99.90
37050;DHT22;22958;51.232;6.826;2023-01-29T06:52:26;-1.80;99.90
37050;DHT22;22958;51.232;6.826;2023-01-29T06:54:53;-1.90;99.90
37050;DHT22;22958;51.232;6.826;2023-01-29T06:57:19;-1.90;99.90
37050;DHT22;22958;51.232;6.826;2023-01-29T06:59:44;-1.80;99.90
37050;DHT22;22958;51.232;6.826;2023-01-29T07:02:10;-1.80;99.90
37050;DHT22;22958;51.232;6.826;2023-01-29T07:04:35;-1.80;99.90
37050;DHT22;22958;51.232;6.826;2023-01-29T07:07:02;-1.90;99.90
37050;DHT22;22958;51.232;6.826;2023-01-29T07:09:28;-1.90;99.90
37050;DHT22;22958;51.232;6.826;2023-01-29T07:11:53;-1.90;99.90
37050;DHT22;22958;51.232;6.826;2023-01-29T07:14:19;-1.80;99.90
37050;DHT22;22958;51.232;6.826;2023-01-29T07:16:44;-1.80;99.90
37050;DHT22;22958;51.232;6.826;2023-01-29T07:19:10;-1.80;99.90
37050;DHT22;22958;51.232;6.826;2023-01-29T07:21:36;-1.80;99.90
37050;DHT22;22958;51.232;6.826;2023-01-29T07:24:02;-1.70;99.90
37050;DHT22;22958;51.232;6.826;2023-01-29T07:26:27;-1.80;99.90
37050;DHT22;22958;51.232;6.826;2023-01-29T07:28:53;-1.70;99.90
37050;DHT22;22958;51.232;6.826;2023-01-29T07:31:18;-1.70;99.90
37050;DHT22;22958;51.232;6.826;2023-01-29T07:33:44;-1.70;99.90
37050;DHT22;22958;51.232;6.826;2023-01-29T07:36:11;-1.70;99.90
37050;DHT22;22958;51.232;6.826;2023-01-29T07:38:36;-1.60;99.90
37050;DHT22;22958;51.232;6.826;2023-01-29T07:41:02;-1.60;99.90
37050;DHT22;22958;51.232;6.826;2023-01-29T07:43:28;-1.50;99.90
37050;DHT22;22958;51.232;6.826;2023-01-29T07:45:54;-1.40;99.90
37050;DHT22;22958;51.232;6.826;2023-01-29T07:48:19;-1.40;99.90
37050;DHT22;22958;51.232;6.826;2023-01-29T07:50:54;-1.40;99.90
37050;DHT22;22958;51.232;6.826;2023-01-29T07:53:20;-1.50;99.90
37050;DHT22;22958;51.232;6.826;2023-01-29T07:55:45;-1.50;99.90
37050;DHT22;22958;51.232;6.826;2023-01-29T07:58:11;-1.50;99.90
37050;DHT22;22958;51.232;6.826;2023-01-29T08:00:37;-1.40;99.90
37050;DHT22;22958;51.232;6.826;2023-01-29T08:03:08;-1.40;99.90
37050;DHT22;22958;51.232;6.826;2023-01-29T08:05:35;-1.40;99.90
37050;DHT22;22958;51.232;6.826;2023-01-29T08:08:00;-1.40;99.90
37050;DHT22;22958;51.232;6.826;2023-01-29T08:10:26;-1.40;99.90
37050;DHT22;22958;51.232;6.826;2023-01-29T08:12:56;-1.30;99.90
37050;DHT22;22958;51.232;6.826;2023-01-29T08:15:23;-1.40;99.90
37050;DHT22;22958;51.232;6.826;2023-01-29T08:17:49;-1.40;99.90
37050;DHT22;22958;51.232;6.826;2023-01-29T08:20:15;-1.50;99.90
37050;DHT22;22958;51.232;6.826;2023-01-29T08:22:41;-1.50;99.90
37050;DHT22;22958;51.232;6.826;2023-01-29T08:25:06;-1.40;99.90
37050;DHT22;22958;51.232;6.826;2023-01-29T08:27:32;-1.40;99.90
37050;DHT22;22958;51.232;6.826;2023-01-29T08:29:58;-1.30;99.90
37050;DHT22;22958;51.232;6.826;2023-01-29T08:32:24;-1.20;99.90
37050;DHT22;22958;51.232;6.826;2023-01-29T08:34:49;-1.20;99.90
37050;DHT22;22958;51.232;6.826;2023-01-29T08:37:15;-1.20;99.90
37050;DHT22;22958;51.232;6.826;2023-01-29T08:39:40;-1.10;99.90
37050;DHT22;22958;51.232;6.826;2023-01-29T08:42:06;-1.10;99.90
37050;DHT22;22958;51.232;6.826;2023-01-29T08:44:31;-1.00;99.90
37050;DHT22;22958;51.232;6.826;2023-01-29T08:46:57;-1.00;99.90
37050;DHT22;22958;51.232;6.826;2023-01-29T08:49:22;-1.10;99.90
37050;DHT22;22958;51.232;6.826;2023-01-29T08:51:48;-1.00;99.90
37050;DHT22;22958;51.232;6.826;2023-01-29T08:54:16;-1.00;99.90
37050;DHT22;22958;51.232;6.826;2023-01-29T08:56:41;-0.90;99.90
37050;DHT22;22958;51.232;6.826;2023-01-29T08:59:09;-0.90;99.90
37050;DHT22;22958;51.232;6.826;2023-01-29T09:01:34;-0.90;99.90
37050;DHT22;22958;51.232;6.826;2023-01-29T09:04:00;-0.80;99.90
37050;DHT22;22958;51.232;6.826;2023-01-29T09:06:25;-0.80;99.90
37050;DHT22;22958;51.232;6.826;2023-01-29T09:08:51;-0.70;99.90
37050;DHT22;22958;51.232;6.826;2023-01-29T09:11:17;-0.70;99.90
37050;DHT22;22958;51.232;6.826;2023-01-29T09:13:42;-0.60;99.90
37050;DHT22;22958;51.232;6.826;2023-01-29T09:16:08;-0.60;99.90
37050;DHT22;22958;51.232;6.826;2023-01-29T09:18:34;-0.60;99.90
37050;DHT22;22958;51.232;6.826;2023-01-29T09:20:59;-0.50;99.90
37050;DHT22;22958;51.232;6.826;2023-01-29T09:23:27;-0.50;99.90
37050;DHT22;22958;51.232;6.826;2023-01-29T09:25:52;-0.50;99.90
37050;DHT22;22958;51.232;6.826;2023-01-29T09:28:18;-0.50;99.90
37050;DHT22;22958;51.232;6.826;2023-01-29T09:30:44;-0.40;99.90
37050;DHT22;22958;51.232;6.826;2023-01-29T09:33:09;-0.40;99.90
37050;DHT22;22958;51.232;6.826;2023-01-29T09:35:35;-0.30;99.90
37050;DHT22;22958;51.232;6.826;2023-01-29T09:38:01;-0.30;99.90
37050;DHT22;22958;51.232;6.826;2023-01-29T09:40:48;-0.30;99.90
37050;DHT22;22958;51.232;6.826;2023-01-29T09:43:42;-0.20;99.90
37050;DHT22;22958;51.232;6.826;2023-01-29T09:49:06;-0.20;99.90
37050;DHT22;22958;51.232;6.826;2023-01-29T09:51:41;-0.20;99.90
37050;DHT22;22958;51.232;6.826;2023-01-29T09:56:55;0.10;99.90
37050;DHT22;22958;51.232;6.826;2023-01-29T09:59:24;0.20;99.90
37050;DHT22;22958;51.232;6.826;2023-01-29T10:07:25;0.40;99.90
37050;DHT22;22958;51.232;6.826;2023-01-29T10:10:14;0.60;99.90
37050;DHT22;22958;51.232;6.826;2023-01-29T10:13:10;0.50;99.90
37050;DHT22;22958;51.232;6.826;2023-01-29T10:15:49;0.40;99.90
37050;DHT22;22958;51.232;6.826;2023-01-29T10:21:14;0.40;99.90
37050;DHT22;22958;51.232;6.826;2023-01-29T10:23:52;0.50;99.90
37050;DHT22;22958;51.232;6.826;2023-01-29T10:26:24;0.50;99.90
37050;DHT22;22958;51.232;6.826;2023-01-29T10:28:51;0.60;99.90
37050;DHT22;22958;51.232;6.826;2023-01-29T10:31:31;0.70;99.90
37050;DHT22;22958;51.232;6.826;2023-01-29T10:34:06;0.70;99.90
37050;DHT22;22958;51.232;6.826;2023-01-29T10:36:37;0.90;99.90
37050;DHT22;22958;51.232;6.826;2023-01-29T10:39:21;1.00;99.90
37050;DHT22;22958;51.232;6.826;2023-01-29T10:48:02;1.00;99.90
37050;DHT22;22958;51.232;6.826;2023-01-29T10:50:49;1.10;99.90
37050;DHT22;22958;51.232;6.826;2023-01-29T10:56:12;1.40;99.90
37050;DHT22;22958;51.232;6.826;2023-01-29T10:58:49;1.50;99.90
37050;DHT22;22958;51.232;6.826;2023-01-29T11:01:15;1.60;99.90
37050;DHT22;22958;51.232;6.826;2023-01-29T11:03:41;1.70;99.90
37050;DHT22;22958;51.232;6.826;2023-01-29T11:06:20;1.70;99.90
37050;DHT22;22958;51.232;6.826;2023-01-29T11:12:08;1.60;99.90
37050;DHT22;22958;51.232;6.826;2023-01-29T11:14:27;1.50;99.90
37050;DHT22;22958;51.232;6.826;2023-01-29T11:16:54;1.20;99.90
37050;DHT22;22958;51.232;6.826;2023-01-29T11:19:37;1.20;99.90
37050;DHT22;22958;51.232;6.826;2023-01-29T11:22:03;1.20;99.90
37050;DHT22;22958;51.232;6.826;2023-01-29T11:24:29;1.20;99.90
37050;DHT22;22958;51.232;6.826;2023-01-29T11:26:58;1.20;99.90
37050;DHT22;22958;51.232;6.826;2023-01-29T11:32:11;1.20;99.90
37050;DHT22;22958;51.232;6.826;2023-01-29T11:34:57;1.20;99.90
37050;DHT22;22958;51.232;6.826;2023-01-29T11:37:37;1.30;99.90
37050;DHT22;22958;51.232;6.826;2023-01-29T11:40:36;1.20;99.90
37050;DHT22;22958;51.232;6.826;2023-01-29T11:45:40;1.20;99.90
37050;DHT22;22958;51.232;6.826;2023-01-29T11:48:13;1.10;99.90
37050;DHT22;22958;51.232;6.826;2023-01-29T11:50:39;1.10;99.90
37050;DHT22;22958;51.232;6.826;2023-01-29T11:53:05;1.20;99.90
37050;DHT22;22958;51.232;6.826;2023-01-29T11:55:34;1.30;99.90
37050;DHT22;22958;51.232;6.826;2023-01-29T11:58:10;1.30;99.90
37050;DHT22;22958;51.232;6.826;2023-01-29T12:00:38;1.20;99.90
37050;DHT22;22958;51.232;6.826;2023-01-29T12:05:53;1.30;99.90
37050;DHT22;22958;51.232;6.826;2023-01-29T12:08:20;1.40;99.90
37050;DHT22;22958;51.232;6.826;2023-01-29T12:10:48;1.50;99.90
37050;DHT22;22958;51.232;6.826;2023-01-29T12:15:45;1.40;99.90
37050;DHT22;22958;51.232;6.826;2023-01-29T12:18:30;1.30;99.90
37050;DHT22;22958;51.232;6.826;2023-01-29T12:24:29;1.30;99.90
37050;DHT22;22958;51.232;6.826;2023-01-29T12:26:56;1.40;99.90
37050;DHT22;22958;51.232;6.826;2023-01-29T12:32:22;1.60;99.90
37050;DHT22;22958;51.232;6.826;2023-01-29T12:35:02;1.50;99.90
37050;DHT22;22958;51.232;6.826;2023-01-29T12:40:14;1.60;99.90
37050;DHT22;22958;51.232;6.826;2023-01-29T12:42:42;1.60;99.90
37050;DHT22;22958;51.232;6.826;2023-01-29T12:45:18;1.70;99.90
37050;DHT22;22958;51.232;6.826;2023-01-29T12:47:52;1.80;99.90
37050;DHT22;22958;51.232;6.826;2023-01-29T12:50:31;1.80;99.90
37050;DHT22;22958;51.232;6.826;2023-01-29T12:55:58;1.80;99.90
37050;DHT22;22958;51.232;6.826;2023-01-29T12:58:46;1.80;99.90
37050;DHT22;22958;51.232;6.826;2023-01-29T13:04:09;1.80;99.90
37050;DHT22;22958;51.232;6.826;2023-01-29T13:06:41;1.80;99.90
37050;DHT22;22958;51.232;6.826;2023-01-29T13:09:13;1.80;99.90
37050;DHT22;22958;51.232;6.826;2023-01-29T13:11:44;1.90;99.90
37050;DHT22;22958;51.232;6.826;2023-01-29T13:14:43;2.00;99.90
37050;DHT22;22958;51.232;6.826;2023-01-29T13:17:17;2.10;99.90
37050;DHT22;22958;51.232;6.826;2023-01-29T13:19:47;2.10;99.90
37050;DHT22;22958;51.232;6.826;2023-01-29T13:22:35;2.00;99.90
37050;DHT22;22958;51.232;6.826;2023-01-29T13:25:02;1.90;99.90
37050;DHT22;22958;51.232;6.826;2023-01-29T13:27:30;1.90;99.90
37050;DHT22;22958;51.232;6.826;2023-01-29T13:29:56;1.90;99.90
37050;DHT22;22958;51.232;6.826;2023-01-29T13:32:25;1.90;99.90
37050;DHT22;22958;51.232;6.826;2023-01-29T13:34:57;1.90;99.90
37050;DHT22;22958;51.232;6.826;2023-01-29T13:37:30;1.90;99.90
37050;DHT22;22958;51.232;6.826;2023-01-29T13:39:58;2.00;99.90
37050;DHT22;22958;51.232;6.826;2023-01-29T13:45:06;2.10;99.90
37050;DHT22;22958;51.232;6.826;2023-01-29T13:47:35;2.10;99.90
37050;DHT22;22958;51.232;6.826;2023-01-29T13:52:59;2.10;99.90
37050;DHT22;22958;51.232;6.826;2023-01-29T13:55:37;2.20;99.90
37050;DHT22;22958;51.232;6.826;2023-01-29T13:58:04;2.20;99.90
37050;DHT22;22958;51.232;6.826;2023-01-29T14:13:48;2.30;99.90
37050;DHT22;22958;51.232;6.826;2023-01-29T14:18:55;2.30;99.90
37050;DHT22;22958;51.232;6.826;2023-01-29T14:21:25;2.40;99.90
37050;DHT22;22958;51.232;6.826;2023-01-29T14:23:56;2.40;99.90
37050;DHT22;22958;51.232;6.826;2023-01-29T14:31:42;2.40;99.90
37050;DHT22;22958;51.232;6.826;2023-01-29T14:34:35;2.50;99.90
37050;DHT22;22958;51.232;6.826;2023-01-29T14:39:48;2.50;99.90
37050;DHT22;22958;51.232;6.826;2023-01-29T14:42:25;2.50;99.90
37050;DHT22;22958;51.232;6.826;2023-01-29T14:52:57;2.50;99.90
37050;DHT22;22958;51.232;6.826;2023-01-29T14:55:29;2.50;99.90
37050;DHT22;22958;51.232;6.826;2023-01-29T14:57:59;2.50;99.90
37050;DHT22;22958;51.232;6.826;2023-01-29T15:00:27;2.50;99.90
37050;DHT22;22958;51.232;6.826;2023-01-29T15:02:54;2.50;99.90
37050;DHT22;22958;51.232;6.826;2023-01-29T15:05:24;2.50;99.90
37050;DHT22;22958;51.232;6.826;2023-01-29T15:07:55;2.60;99.90
37050;DHT22;22958;51.232;6.826;2023-01-29T15:10:50;2.50;99.90
37050;DHT22;22958;51.232;6.826;2023-01-29T15:13:59;2.50;99.90
37050;DHT22;22958;51.232;6.826;2023-01-29T15:16:47;2.50;99.90
37050;DHT22;22958;51.232;6.826;2023-01-29T15:19:20;2.60;99.90
37050;DHT22;22958;51.232;6.826;2023-01-29T15:22:11;2.60;99.90
37050;DHT22;22958;51.232;6.826;2023-01-29T15:24:38;2.60;99.90
37050;DHT22;22958;51.232;6.826;2023-01-29T15:27:10;2.60;99.90
37050;DHT22;22958;51.232;6.826;2023-01-29T15:29:37;2.60;99.90
37050;DHT22;22958;51.232;6.826;2023-01-29T15:32:03;2.60;99.90
37050;DHT22;22958;51.232;6.826;2023-01-29T15:34:29;2.50;99.90
37050;DHT22;22958;51.232;6.826;2023-01-29T15:36:54;2.60;99.90
37050;DHT22;22958;51.232;6.826;2023-01-29T15:39:22;2.60;99.90
37050;DHT22;22958;51.232;6.826;2023-01-29T15:41:49;2.60;99.90
37050;DHT22;22958;51.232;6.826;2023-01-29T15:44:24;2.70;99.90
37050;DHT22;22958;51.232;6.826;2023-01-29T15:46:56;2.70;99.90
37050;DHT22;22958;51.232;6.826;2023-01-29T15:49:34;2.70;99.90
37050;DHT22;22958;51.232;6.826;2023-01-29T15:52:03;2.70;99.90
37050;DHT22;22958;51.232;6.826;2023-01-29T15:54:31;2.80;99.90
37050;DHT22;22958;51.232;6.826;2023-01-29T15:56:58;2.80;99.90
37050;DHT22;22958;51.232;6.826;2023-01-29T15:59:29;2.80;99.90
37050;DHT22;22958;51.232;6.826;2023-01-29T16:02:17;2.80;99.90
37050;DHT22;22958;51.232;6.826;2023-01-29T16:04:43;2.80;99.90
37050;DHT22;22958;51.232;6.826;2023-01-29T16:07:09;2.80;99.90
37050;DHT22;22958;51.232;6.826;2023-01-29T16:09:35;2.90;99.90
37050;DHT22;22958;51.232;6.826;2023-01-29T16:12:01;2.90;99.90
37050;DHT22;22958;51.232;6.826;2023-01-29T16:14:27;2.90;99.90
37050;DHT22;22958;51.232;6.826;2023-01-29T16:16:54;2.90;99.90
37050;DHT22;22958;51.232;6.826;2023-01-29T16:19:25;2.90;99.90
37050;DHT22;22958;51.232;6.826;2023-01-29T16:21:58;2.90;99.90
37050;DHT22;22958;51.232;6.826;2023-01-29T16:24:24;2.90;99.90
37050;DHT22;22958;51.232;6.826;2023-01-29T16:26:56;2.90;99.90
37050;DHT22;22958;51.232;6.826;2023-01-29T16:29:29;2.90;99.90
37050;DHT22;22958;51.232;6.826;2023-01-29T16:31:56;2.90;99.90
37050;DHT22;22958;51.232;6.826;2023-01-29T16:34:29;2.90;99.90
37050;DHT22;22958;51.232;6.826;2023-01-29T16:36:56;2.90;99.90
37050;DHT22;22958;51.232;6.826;2023-01-29T16:39:35;3.00;99.90
37050;DHT22;22958;51.232;6.826;2023-01-29T16:42:28;2.90;99.90
37050;DHT22;22958;51.232;6.826;2023-01-29T16:44:58;2.90;99.90
37050;DHT22;22958;51.232;6.826;2023-01-29T16:47:35;3.00;99.90
37050;DHT22;22958;51.232;6.826;2023-01-29T16:53:17;2.90;99.90
37050;DHT22;22958;51.232;6.826;2023-01-29T16:55:44;2.90;99.90
37050;DHT22;22958;51.232;6.826;2023-01-29T16:58:19;2.90;99.90
37050;DHT22;22958;51.232;6.826;2023-01-29T17:00:52;2.90;99.90
37050;DHT22;22958;51.232;6.826;2023-01-29T17:03:20;2.90;99.90
37050;DHT22;22958;51.232;6.826;2023-01-29T17:05:46;3.00;99.90
37050;DHT22;22958;51.232;6.826;2023-01-29T17:08:21;2.90;99.90
37050;DHT22;22958;51.232;6.826;2023-01-29T17:10:48;3.00;99.90
37050;DHT22;22958;51.232;6.826;2023-01-29T17:15:52;2.90;99.90
37050;DHT22;22958;51.232;6.826;2023-01-29T17:18:24;3.00;99.90
37050;DHT22;22958;51.232;6.826;2023-01-29T17:20:50;3.00;99.90
37050;DHT22;22958;51.232;6.826;2023-01-29T17:23:19;3.00;99.90
37050;DHT22;22958;51.232;6.826;2023-01-29T17:25:45;2.90;99.90
37050;DHT22;22958;51.232;6.826;2023-01-29T17:28:13;3.00;99.90
37050;DHT22;22958;51.232;6.826;2023-01-29T17:30:38;2.90;99.90
37050;DHT22;22958;51.232;6.826;2023-01-29T17:33:17;2.90;99.90
37050;DHT22;22958;51.232;6.826;2023-01-29T17:35:47;2.90;99.90
37050;DHT22;22958;51.232;6.826;2023-01-29T17:38:14;2.90;99.90
37050;DHT22;22958;51.232;6.826;2023-01-29T17:40:47;2.90;99.90
37050;DHT22;22958;51.232;6.826;2023-01-29T17:43:14;2.90;99.90
37050;DHT22;22958;51.232;6.826;2023-01-29T17:45:40;3.00;99.90
37050;DHT22;22958;51.232;6.826;2023-01-29T17:48:23;2.90;99.90
37050;DHT22;22958;51.232;6.826;2023-01-29T17:50:51;2.90;99.90
37050;DHT22;22958;51.232;6.826;2023-01-29T17:53:19;2.90;99.90
37050;DHT22;22958;51.232;6.826;2023-01-29T17:55:45;3.00;99.90
37050;DHT22;22958;51.232;6.826;2023-01-29T17:58:36;3.00;99.90
37050;DHT22;22958;51.232;6.826;2023-01-29T18:01:02;3.00;99.90
37050;DHT22;22958;51.232;6.826;2023-01-29T18:03:27;3.00;99.90
37050;DHT22;22958;51.232;6.826;2023-01-29T18:05:54;3.00;99.90
37050;DHT22;22958;51.232;6.826;2023-01-29T18:08:21;3.00;99.90
37050;DHT22;22958;51.232;6.826;2023-01-29T18:10:49;3.00;99.90
37050;DHT22;22958;51.232;6.826;2023-01-29T18:13:14;3.00;99.90
37050;DHT22;22958;51.232;6.826;2023-01-29T18:15:41;3.00;99.90